Airfield :
LOGIN :

Register | Disclaimer

   EN    FR    IT 

 










Legend :    VFR   Marginal VFR   IFR   Intensive IFR   Very Intensive IFR
Visi :
Ceiling :
>= 8 km
>= 3000ft
5 to 8 km
1000 to 3000 ft
1500m to 5 km
500 to 1000 ft
800 to 1500m
200 to 500 ft
< 800m
< 200 ft
Symbols :   Thunderstorms  Fog  Heavy snow  Heavy precipitations  Wind > 20 kt
SIGMETs :     Misc.  Thunderstorms  Icing  Turbulence  Mountain Waves  Volcanic Ashes






- Airport Elevation : 146 ft
- IATA code : RKE


EKRK - Roskilde Tune

CURRENT METAR :
  • 120520Z AUTO 17004KT 5000 OVC003/// 04/03 Q0999

EXPIRED METARs :
  • 120450Z AUTO 17003KT 6000 OVC003/// 04/04 Q0999
  • 120420Z AUTO 18004KT 5000 OVC003/// 04/04 Q0999
  • 120350Z AUTO 18004KT 5000 -DZ OVC004/// 04/04 Q0999
  • 120320Z AUTO 17004KT 5000 DZ BR OVC003/// 04/04 Q1000
  • 120250Z AUTO 17003KT 5000 DZ OVC004/// 04/04 Q1000

TAF TAF EKRK
Valid from the 12 at 06:00 until the 12 at 15:00 UTC


120521Z 1206/1215 19005KT 4000 BR BKN002
TEMPO 1206/1209 6000 NSW BKN008
BECMG 1209/1211 9999 NSW BKN012
TEMPO 1211/1212 BKN008



MET'MAP, your aeronautical weather chart ! - Copyright ORBIFLY December 2007 - Disclaimer

ORBIFLY MET'MAP TEAM :

Programming & Development : Alexandra Zaïnal
Concept & original design : Baudouin d'Aumeries
Assistance for programming : Marc-Olivier Méhu
Technical & hardware support : Manuel Goepfert

Contact : metmap@orbifly.com




SOURCES & CREDITS :

   NOAA